Time;durP1;ratioP1;P1;durP2;ratioP2;P2;SDS_P1;SDS_P2;PMS_P1;PMS_P2;Temp;Humidity;BMP_temperature;BMP_pressure;BME280_temperature;BME280_humidity;BME280_pressure;Samples;Min_cycle;Max_cycle;Signal;HPM_P1;HPM_P2
2021/05/03 00:01:51;;;;;;;6.85;5.65;;;6.90;1.00;;;;;;5076622;28;20251;-79
2021/05/03 00:04:17;;;;;;;5.93;4.65;;;7.00;1.00;;;;;;5072564;28;20236;-80
2021/05/03 00:06:43;;;;;;;7.45;5.05;;;7.00;1.00;;;;;;5068336;28;20280;-80
2021/05/03 00:09:10;;;;;;;5.10;4.30;;;7.00;1.00;;;;;;5069587;28;22571;-81
2021/05/03 00:11:36;;;;;;;5.85;5.20;;;7.00;1.00;;;;;;5072864;28;20214;-79
2021/05/03 00:14:03;;;;;;;5.00;4.50;;;7.00;1.00;;;;;;5080421;28;20225;-80
2021/05/03 00:16:30;;;;;;;5.55;4.60;;;7.10;1.00;;;;;;5074149;28;20227;-79
2021/05/03 00:18:57;;;;;;;6.97;4.78;;;7.10;1.00;;;;;;5072311;28;20217;-80
2021/05/03 00:21:23;;;;;;;6.97;4.70;;;7.10;1.00;;;;;;5079156;28;20225;-79
2021/05/03 00:23:49;;;;;;;6.15;5.00;;;7.10;1.00;;;;;;5081376;28;20260;-79
2021/05/03 00:26:16;;;;;;;5.35;4.82;;;7.10;1.00;;;;;;5053689;28;20217;-81
2021/05/03 00:28:42;;;;;;;5.78;5.15;;;7.00;1.00;;;;;;5072265;28;20228;-81
2021/05/03 00:31:09;;;;;;;5.15;4.10;;;7.00;1.00;;;;;;5074508;28;20228;-83
2021/05/03 00:33:35;;;;;;;5.20;4.70;;;7.00;1.00;;;;;;5050981;28;20218;-80
2021/05/03 00:36:03;;;;;;;5.60;5.10;;;7.00;1.00;;;;;;5071565;28;20255;-80
2021/05/03 00:38:31;;;;;;;5.25;4.75;;;7.00;1.00;;;;;;5059775;28;20228;-80
2021/05/03 00:40:57;;;;;;;6.55;5.43;;;7.00;1.00;;;;;;5075700;28;20237;-80
2021/05/03 00:43:24;;;;;;;5.57;5.05;;;7.00;1.00;;;;;;5078264;28;20233;-80
2021/05/03 00:45:51;;;;;;;5.38;4.95;;;6.90;1.00;;;;;;5059287;28;20218;-80
2021/05/03 00:48:17;;;;;;;5.40;4.90;;;7.00;1.00;;;;;;5071160;28;20217;-82
2021/05/03 00:50:44;;;;;;;7.25;5.45;;;7.00;1.00;;;;;;5071503;28;22324;-79
2021/05/03 00:53:11;;;;;;;7.40;5.57;;;7.00;1.00;;;;;;5065420;28;20226;-78
2021/05/03 00:55:37;;;;;;;5.40;5.00;;;7.00;1.00;;;;;;5059764;28;20214;-81
2021/05/03 00:58:04;;;;;;;5.90;4.97;;;7.00;1.00;;;;;;5064929;28;20224;-81
2021/05/03 01:00:32;;;;;;;4.75;4.28;;;7.00;1.00;;;;;;5063019;28;20225;-81
2021/05/03 01:02:59;;;;;;;5.45;4.47;;;7.00;1.00;;;;;;5064210;28;20232;-80
2021/05/03 01:05:28;;;;;;;7.65;4.63;;;7.00;1.00;;;;;;5054981;28;20221;-79
2021/05/03 01:07:55;;;;;;;5.22;4.53;;;7.00;1.00;;;;;;5070871;28;20240;-81
2021/05/03 01:10:22;;;;;;;7.65;4.35;;;7.00;1.00;;;;;;5074406;28;20324;-79
2021/05/03 01:12:48;;;;;;;6.47;4.90;;;7.00;1.00;;;;;;5072706;28;20511;-80
2021/05/03 01:15:22;;;;;;;5.43;4.40;;;7.00;1.00;;;;;;5075977;28;20255;-81
2021/05/03 01:17:55;;;;;;;7.43;4.50;;;7.00;1.00;;;;;;5063604;28;20231;-79
2021/05/03 01:20:22;;;;;;;5.88;4.38;;;7.00;1.00;;;;;;5069110;28;21073;-79
2021/05/03 01:22:49;;;;;;;6.10;4.28;;;7.00;1.00;;;;;;5066368;28;20325;-79
2021/05/03 01:25:15;;;;;;;5.10;4.60;;;7.00;1.00;;;;;;5070898;28;21094;-79
2021/05/03 01:27:41;;;;;;;6.13;4.32;;;7.00;1.00;;;;;;5069206;28;20309;-80
2021/05/03 01:30:09;;;;;;;4.97;3.90;;;7.10;1.00;;;;;;5069295;28;20288;-82
2021/05/03 01:32:36;;;;;;;8.15;4.65;;;7.00;1.00;;;;;;5049918;28;20224;-79
2021/05/03 01:35:04;;;;;;;5.13;4.22;;;7.00;1.00;;;;;;5068416;28;20252;-79
2021/05/03 01:37:30;;;;;;;4.53;4.13;;;7.10;1.00;;;;;;5068189;28;21012;-79
2021/05/03 01:39:57;;;;;;;5.90;4.40;;;7.00;1.00;;;;;;5050248;28;21021;-79
2021/05/03 01:42:24;;;;;;;5.13;4.00;;;7.00;1.00;;;;;;5049724;28;20229;-79
2021/05/03 01:44:56;;;;;;;6.10;4.43;;;7.00;1.00;;;;;;5066957;28;21544;-79
2021/05/03 01:47:23;;;;;;;4.38;3.50;;;7.00;1.00;;;;;;5070637;28;20280;-80
2021/05/03 01:49:49;;;;;;;4.75;3.90;;;7.00;1.00;;;;;;5062155;28;20229;-81
2021/05/03 01:52:15;;;;;;;7.07;4.20;;;7.00;1.00;;;;;;5067149;28;20221;-80
2021/05/03 01:54:42;;;;;;;5.70;4.60;;;7.00;1.00;;;;;;5041427;28;20241;-80
2021/05/03 01:57:09;;;;;;;4.93;4.43;;;6.90;1.00;;;;;;5062366;28;20212;-81
2021/05/03 01:59:35;;;;;;;5.30;4.65;;;6.90;1.00;;;;;;5065448;28;20232;-82
2021/05/03 02:02:02;;;;;;;8.93;5.10;;;6.90;1.00;;;;;;5056284;28;20225;-81
2021/05/03 02:04:28;;;;;;;5.22;4.72;;;6.80;1.00;;;;;;5054878;28;21160;-79
2021/05/03 02:06:54;;;;;;;7.90;5.75;;;6.80;1.00;;;;;;5066963;28;20216;-80
2021/05/03 02:09:20;;;;;;;7.95;5.68;;;6.70;1.00;;;;;;5063679;28;20916;-80
2021/05/03 02:11:48;;;;;;;8.18;5.50;;;6.70;1.00;;;;;;5062471;28;20231;-79
2021/05/03 02:14:15;;;;;;;6.50;5.50;;;6.70;1.00;;;;;;5063214;28;20262;-79
2021/05/03 02:16:42;;;;;;;7.35;5.40;;;6.60;1.00;;;;;;5062437;28;20228;-82
2021/05/03 02:19:08;;;;;;;9.68;6.05;;;6.60;1.00;;;;;;5046102;28;20292;-80
2021/05/03 02:21:35;;;;;;;5.85;5.25;;;6.60;1.00;;;;;;5058350;28;20961;-80
2021/05/03 02:24:01;;;;;;;6.28;5.53;;;6.60;1.00;;;;;;5059382;28;20236;-79
2021/05/03 02:26:28;;;;;;;7.03;5.78;;;6.50;1.00;;;;;;5064630;28;20228;-83
2021/05/03 02:28:54;;;;;;;8.05;5.68;;;6.50;1.00;;;;;;5069243;28;20335;-79
2021/05/03 02:31:21;;;;;;;6.63;5.65;;;6.50;1.00;;;;;;5065077;28;20217;-80
2021/05/03 02:33:47;;;;;;;7.03;4.93;;;6.50;1.00;;;;;;5059105;28;20217;-81
2021/05/03 02:36:13;;;;;;;5.13;4.57;;;6.40;1.00;;;;;;5064449;28;20228;-80
2021/05/03 02:38:39;;;;;;;5.43;4.82;;;6.30;1.00;;;;;;5070516;28;20228;-80
2021/05/03 02:41:05;;;;;;;5.97;4.75;;;6.20;1.00;;;;;;5062153;28;20785;-80
2021/05/03 02:43:32;;;;;;;7.32;5.43;;;6.10;1.00;;;;;;5055272;28;20415;-79
2021/05/03 02:45:58;;;;;;;5.25;4.70;;;6.00;1.00;;;;;;5058675;28;20213;-81
2021/05/03 02:48:25;;;;;;;6.10;4.63;;;6.00;1.00;;;;;;5057139;28;20345;-79
2021/05/03 02:50:51;;;;;;;8.65;5.35;;;5.90;1.00;;;;;;5057906;28;20231;-80
2021/05/03 02:53:17;;;;;;;7.97;5.60;;;5.80;1.00;;;;;;5062793;28;20278;-80
2021/05/03 02:55:43;;;;;;;6.68;5.80;;;5.80;1.00;;;;;;5063496;28;20285;-79
2021/05/03 02:58:10;;;;;;;10.57;5.93;;;5.70;1.00;;;;;;5049827;28;20240;-80
2021/05/03 03:00:36;;;;;;;5.90;4.65;;;5.70;1.00;;;;;;5070422;28;20224;-80
2021/05/03 03:03:04;;;;;;;7.63;5.55;;;5.70;1.00;;;;;;5068902;28;20217;-81
2021/05/03 03:05:32;;;;;;;7.15;5.80;;;5.70;1.00;;;;;;5065702;28;20968;-81
2021/05/03 03:08:01;;;;;;;6.38;5.00;;;5.70;1.00;;;;;;5041697;28;20236;-80
2021/05/03 03:10:28;;;;;;;6.20;4.63;;;5.70;1.00;;;;;;5068156;28;20274;-80
2021/05/03 03:12:55;;;;;;;7.45;5.40;;;5.70;1.00;;;;;;5071605;28;20232;-79
2021/05/03 03:15:23;;;;;;;5.85;5.15;;;5.80;1.00;;;;;;5062335;28;20933;-80
2021/05/03 03:17:51;;;;;;;14.25;6.13;;;5.70;1.00;;;;;;5051660;28;20315;-80
2021/05/03 03:20:19;;;;;;;9.57;6.65;;;5.70;1.00;;;;;;5068562;28;20245;-80
2021/05/03 03:22:46;;;;;;;9.00;6.05;;;5.70;1.00;;;;;;5071859;28;21241;-81
2021/05/03 03:25:14;;;;;;;5.70;4.60;;;5.70;1.00;;;;;;5073567;28;20232;-81
2021/05/03 03:27:40;;;;;;;5.82;5.22;;;5.80;1.00;;;;;;5066581;28;20252;-81
2021/05/03 03:30:08;;;;;;;6.78;5.22;;;5.70;1.00;;;;;;5069029;28;20336;-81
2021/05/03 03:32:35;;;;;;;6.50;4.53;;;5.70;1.00;;;;;;5060620;28;20343;-80
2021/05/03 03:35:01;;;;;;;6.70;6.00;;;5.70;1.00;;;;;;5068130;28;20340;-80
2021/05/03 03:37:27;;;;;;;6.65;4.80;;;5.70;1.00;;;;;;5069338;28;20221;-80
2021/05/03 03:39:54;;;;;;;6.07;5.57;;;5.70;1.00;;;;;;5050918;28;20235;-81
2021/05/03 03:42:20;;;;;;;5.40;4.90;;;5.70;1.00;;;;;;5069114;28;20327;-81
2021/05/03 03:44:47;;;;;;;6.47;4.40;;;5.70;1.00;;;;;;5067708;28;20330;-78
2021/05/03 03:47:13;;;;;;;8.20;5.63;;;5.80;1.00;;;;;;5069043;28;20229;-80
2021/05/03 03:49:39;;;;;;;6.60;4.68;;;5.80;1.00;;;;;;5050059;28;20716;-81
2021/05/03 03:52:05;;;;;;;6.68;5.72;;;5.80;1.00;;;;;;5047941;28;20221;-81
2021/05/03 03:54:32;;;;;;;6.43;5.20;;;5.80;1.00;;;;;;5067002;28;20857;-81
2021/05/03 03:56:59;;;;;;;6.88;5.20;;;5.70;1.00;;;;;;5069016;28;20216;-80
2021/05/03 03:59:31;;;;;;;8.60;5.53;;;5.70;1.00;;;;;;5069888;28;20296;-80
2021/05/03 04:01:57;;;;;;;7.25;4.30;;;5.80;1.00;;;;;;5068669;28;20217;-82
2021/05/03 04:04:27;;;;;;;4.85;4.20;;;5.80;1.00;;;;;;5071053;28;20221;-80
2021/05/03 04:06:56;;;;;;;7.47;5.38;;;5.70;1.00;;;;;;5047387;28;20229;-80
2021/05/03 04:09:31;;;;;;;6.82;4.90;;;5.70;1.00;;;;;;5049852;28;20228;-79
2021/05/03 04:12:12;;;;;;;7.32;5.68;;;5.70;1.00;;;;;;5070761;28;20232;-81
2021/05/03 04:23:08;;;;;;;14.68;11.18;;;5.60;1.00;;;;;;5068463;28;21102;-80
2021/05/03 04:25:37;;;;;;;11.70;5.90;;;5.50;1.00;;;;;;5069283;28;20225;-82
2021/05/03 04:28:05;;;;;;;10.15;5.63;;;5.60;1.00;;;;;;5046197;28;20225;-82
2021/05/03 04:30:32;;;;;;;6.38;4.70;;;5.60;1.00;;;;;;5068700;28;20244;-80
2021/05/03 04:32:59;;;;;;;7.43;5.97;;;5.60;1.00;;;;;;5047980;28;20864;-81
2021/05/03 04:35:25;;;;;;;5.57;4.70;;;5.60;1.00;;;;;;5066945;28;20217;-81
2021/05/03 04:37:52;;;;;;;5.68;4.75;;;5.60;1.00;;;;;;5068930;28;20316;-82
2021/05/03 04:40:18;;;;;;;6.65;6.03;;;5.60;1.00;;;;;;5076131;28;20229;-79
2021/05/03 04:42:45;;;;;;;9.85;5.90;;;5.70;1.00;;;;;;5070022;28;20260;-82
2021/05/03 04:45:14;;;;;;;8.00;5.40;;;5.70;1.00;;;;;;5068419;28;20263;-81
2021/05/03 04:47:40;;;;;;;6.93;4.75;;;5.70;1.00;;;;;;5074372;28;20224;-83
2021/05/03 04:50:08;;;;;;;6.30;4.78;;;5.70;1.00;;;;;;5056286;28;20259;-81
2021/05/03 04:52:35;;;;;;;8.00;5.40;;;5.70;1.00;;;;;;5065240;28;20232;-84
2021/05/03 04:55:02;;;;;;;6.32;4.45;;;5.80;1.00;;;;;;5062459;28;20267;-83
2021/05/03 04:57:28;;;;;;;5.88;5.38;;;5.80;1.00;;;;;;5070158;28;20279;-81
2021/05/03 04:59:54;;;;;;;5.15;4.60;;;5.80;1.00;;;;;;5073264;28;20229;-85
2021/05/03 05:02:21;;;;;;;8.05;5.30;;;5.90;1.00;;;;;;5081882;28;20249;-83
2021/05/03 05:04:47;;;;;;;6.50;3.85;;;5.90;1.00;;;;;;5080032;28;20220;-82
2021/05/03 05:07:15;;;;;;;5.10;4.50;;;5.90;1.00;;;;;;5089518;28;20254;-89
2021/05/03 05:09:42;;;;;;;9.63;4.07;;;5.90;1.00;;;;;;5091344;28;20204;-84
2021/05/03 05:12:09;;;;;;;8.10;5.38;;;6.10;1.00;;;;;;5086264;28;20233;-87
2021/05/03 05:14:35;;;;;;;5.63;4.97;;;6.10;1.00;;;;;;5065172;28;20239;-87
2021/05/03 05:17:02;;;;;;;6.57;4.50;;;6.20;1.00;;;;;;5073802;28;20329;-83
2021/05/03 05:19:29;;;;;;;5.60;4.72;;;6.20;1.00;;;;;;5062971;28;20225;-85
2021/05/03 05:21:56;;;;;;;6.22;4.85;;;6.20;1.00;;;;;;5067951;28;20218;-85
2021/05/03 05:24:23;;;;;;;4.45;4.05;;;6.30;1.00;;;;;;5072666;28;20225;-86
2021/05/03 05:26:50;;;;;;;4.55;4.15;;;6.30;1.00;;;;;;5076081;28;20229;-83
2021/05/03 05:29:16;;;;;;;6.07;4.57;;;6.30;1.00;;;;;;5078324;28;20236;-86
2021/05/03 05:31:42;;;;;;;17.88;7.45;;;6.40;1.00;;;;;;5061778;28;20229;-83
2021/05/03 05:34:08;;;;;;;6.50;4.43;;;6.40;1.00;;;;;;5077058;28;20578;-83
2021/05/03 05:36:35;;;;;;;11.27;8.18;;;6.40;1.00;;;;;;5082101;28;20213;-82
2021/05/03 05:39:02;;;;;;;5.82;4.50;;;6.50;1.00;;;;;;5094607;28;20229;-83
2021/05/03 05:41:29;;;;;;;5.50;4.45;;;6.40;1.00;;;;;;5083896;28;20221;-81
2021/05/03 05:43:55;;;;;;;8.60;4.95;;;6.50;1.00;;;;;;5060818;28;20225;-81
2021/05/03 05:46:21;;;;;;;7.30;4.57;;;6.60;1.00;;;;;;5072870;28;20229;-81
2021/05/03 05:48:48;;;;;;;7.07;3.95;;;6.60;1.00;;;;;;5072176;28;20280;-82
2021/05/03 05:51:14;;;;;;;8.75;5.97;;;6.70;1.00;;;;;;5070292;28;20224;-83
2021/05/03 05:53:41;;;;;;;9.18;5.60;;;6.70;1.00;;;;;;5084166;28;20224;-82
2021/05/03 05:56:07;;;;;;;5.57;4.88;;;6.80;1.00;;;;;;5088882;28;20268;-80
2021/05/03 05:58:34;;;;;;;4.78;4.28;;;6.80;1.00;;;;;;5097257;28;20231;-81
2021/05/03 06:01:01;;;;;;;9.00;5.15;;;6.70;1.00;;;;;;5092064;28;20221;-81
2021/05/03 06:03:27;;;;;;;7.43;4.38;;;6.70;1.00;;;;;;5087983;28;20252;-82
2021/05/03 06:05:53;;;;;;;8.05;4.28;;;6.70;1.00;;;;;;5077124;28;20221;-82
2021/05/03 06:08:20;;;;;;;7.03;4.65;;;6.60;1.00;;;;;;5082160;28;20229;-80
2021/05/03 06:10:47;;;;;;;4.65;4.25;;;6.60;1.00;;;;;;5078958;28;20276;-79
2021/05/03 06:13:14;;;;;;;7.60;5.35;;;6.50;1.00;;;;;;5083603;28;20308;-83
2021/05/03 06:15:40;;;;;;;8.73;5.00;;;6.50;1.00;;;;;;5083390;28;20292;-82
2021/05/03 06:18:07;;;;;;;8.00;4.72;;;6.60;1.00;;;;;;5093948;28;20220;-85
2021/05/03 06:20:34;;;;;;;4.80;4.30;;;6.70;1.00;;;;;;5095545;28;20212;-86
2021/05/03 06:23:02;;;;;;;5.75;4.30;;;6.80;1.00;;;;;;5085667;28;20769;-86
2021/05/03 06:25:29;;;;;;;5.90;4.60;;;6.90;1.00;;;;;;5083305;28;20220;-86
2021/05/03 06:27:56;;;;;;;6.43;4.45;;;7.00;1.00;;;;;;5081161;28;21216;-87
2021/05/03 06:30:24;;;;;;;7.35;4.40;;;7.00;1.00;;;;;;5150313;22;20235;-85
2021/05/03 06:32:52;;;;;;;4.65;4.15;;;7.00;1.00;;;;;;5089824;27;20228;-83
2021/05/03 06:35:19;;;;;;;7.13;4.55;;;7.00;1.00;;;;;;5064200;28;20225;-82
2021/05/03 06:37:45;;;;;;;4.20;3.80;;;7.10;1.00;;;;;;5070215;28;20335;-79
2021/05/03 06:40:13;;;;;;;6.45;4.68;;;7.10;1.00;;;;;;5079072;28;20252;-86
2021/05/03 06:42:41;;;;;;;4.53;3.83;;;7.20;1.00;;;;;;5076841;28;20299;-81
2021/05/03 06:45:11;;;;;;;6.65;5.38;;;7.20;1.00;;;;;;5075915;28;20232;-80
2021/05/03 06:47:37;;;;;;;5.47;4.05;;;7.20;1.00;;;;;;5072027;28;20228;-81
2021/05/03 06:50:04;;;;;;;5.05;4.18;;;7.30;1.00;;;;;;5074221;28;21512;-83
2021/05/03 06:52:30;;;;;;;4.13;3.72;;;7.30;1.00;;;;;;5056124;28;20736;-83
2021/05/03 06:54:57;;;;;;;6.03;3.78;;;7.40;1.00;;;;;;5086922;28;20227;-83
2021/05/03 06:57:23;;;;;;;4.88;3.90;;;7.50;1.00;;;;;;5081202;28;20325;-87
2021/05/03 06:59:49;;;;;;;5.93;3.70;;;7.60;1.00;;;;;;5075999;28;20213;-84
2021/05/03 07:02:21;;;;;;;6.88;4.03;;;7.60;1.00;;;;;;5080131;28;21166;-85
2021/05/03 07:04:50;;;;;;;5.63;5.05;;;7.70;1.00;;;;;;5074262;28;20236;-83
2021/05/03 07:07:17;;;;;;;6.57;3.53;;;7.80;1.00;;;;;;5074373;28;20232;-82
2021/05/03 07:09:46;;;;;;;6.35;4.05;;;8.00;1.00;;;;;;5085771;28;20217;-84
2021/05/03 07:12:18;;;;;;;7.35;3.75;;;8.20;1.00;;;;;;5082672;28;20644;-84
2021/05/03 07:14:45;;;;;;;4.32;2.95;;;8.40;1.00;;;;;;5082914;28;20335;-86
2021/05/03 07:17:12;;;;;;;6.50;3.60;;;8.60;1.00;;;;;;5062759;28;20260;-83
2021/05/03 07:19:39;;;;;;;4.22;3.38;;;8.70;1.00;;;;;;5073698;28;20316;-83
2021/05/03 07:22:07;;;;;;;5.93;3.15;;;8.90;1.00;;;;;;5069780;28;20235;-83
2021/05/03 07:24:35;;;;;;;5.22;3.47;;;9.00;1.00;;;;;;5078192;28;22353;-81
2021/05/03 07:27:01;;;;;;;4.07;3.13;;;9.10;1.00;;;;;;5078077;28;20288;-80
2021/05/03 07:29:27;;;;;;;3.95;2.92;;;9.20;1.00;;;;;;5079372;28;21027;-80
2021/05/03 07:31:54;;;;;;;5.45;3.05;;;9.30;1.00;;;;;;5080173;28;20282;-81
2021/05/03 07:34:20;;;;;;;6.35;3.70;;;9.30;1.00;;;;;;5087558;28;20231;-80
2021/05/03 07:36:51;;;;;;;6.07;3.50;;;9.30;1.00;;;;;;5062910;28;20257;-80
2021/05/03 07:39:17;;;;;;;3.80;2.80;;;9.30;1.00;;;;;;5076904;28;20236;-80
2021/05/03 07:41:44;;;;;;;3.05;2.75;;;9.50;1.00;;;;;;5071752;28;20237;-80
2021/05/03 07:44:10;;;;;;;3.65;2.83;;;9.50;1.00;;;;;;5083680;28;20229;-82
2021/05/03 07:46:37;;;;;;;4.53;2.60;;;9.60;1.00;;;;;;5078449;28;20256;-79
2021/05/03 07:49:06;;;;;;;3.97;3.35;;;9.50;1.00;;;;;;5076811;28;20225;-79
2021/05/03 07:51:33;;;;;;;6.38;3.35;;;9.30;1.00;;;;;;5076603;28;20221;-80
2021/05/03 07:54:00;;;;;;;3.40;3.10;;;9.30;1.00;;;;;;5089172;28;20212;-81
2021/05/03 07:56:30;;;;;;;4.43;2.75;;;9.30;1.00;;;;;;5088465;28;20235;-82
2021/05/03 07:58:56;;;;;;;3.50;3.20;;;9.50;1.00;;;;;;5092613;28;20320;-80
2021/05/03 08:01:23;;;;;;;3.28;2.95;;;9.60;1.00;;;;;;5075986;28;20215;-80
2021/05/03 08:03:49;;;;;;;4.75;3.20;;;9.80;1.00;;;;;;5082486;28;20296;-79
2021/05/03 08:06:15;;;;;;;3.38;2.92;;;10.00;1.00;;;;;;5067010;28;20271;-80
2021/05/03 08:08:43;;;;;;;4.60;3.20;;;10.10;1.00;;;;;;5078877;28;20236;-80
2021/05/03 08:11:10;;;;;;;3.90;2.83;;;10.20;1.00;;;;;;5073679;28;20218;-80
2021/05/03 08:13:37;;;;;;;5.13;2.80;;;10.40;1.00;;;;;;5073543;28;20245;-79
2021/05/03 08:16:07;;;;;;;3.53;2.65;;;10.40;1.00;;;;;;5072742;28;20275;-81
2021/05/03 08:18:33;;;;;;;4.07;2.55;;;10.30;1.00;;;;;;5077154;28;20740;-81
2021/05/03 08:21:04;;;;;;;4.70;2.85;;;10.40;1.00;;;;;;5085527;28;20216;-84
2021/05/03 08:23:31;;;;;;;3.53;3.22;;;10.50;1.00;;;;;;5078470;28;20221;-82
2021/05/03 08:25:58;;;;;;;3.67;2.78;;;10.70;1.00;;;;;;5079149;28;22708;-83
2021/05/03 08:28:25;;;;;;;4.25;3.42;;;10.70;1.00;;;;;;5079954;28;20249;-81
2021/05/03 08:30:52;;;;;;;3.30;3.00;;;10.90;1.00;;;;;;5083384;28;20223;-80
2021/05/03 08:33:19;;;;;;;3.00;2.78;;;11.00;1.00;;;;;;5079363;28;20221;-79
2021/05/03 08:35:46;;;;;;;3.50;3.10;;;10.90;1.00;;;;;;5076155;28;20376;-81
2021/05/03 08:38:13;;;;;;;6.18;3.53;;;11.00;1.00;;;;;;5072325;28;20220;-80
2021/05/03 08:40:40;;;;;;;3.38;2.88;;;11.20;1.00;;;;;;5060641;28;20235;-79
2021/05/03 08:43:06;;;;;;;4.50;2.70;;;11.40;1.00;;;;;;5073975;28;21482;-79
2021/05/03 08:45:37;;;;;;;3.90;2.35;;;11.40;1.00;;;;;;5049369;28;20250;-82
2021/05/03 08:48:07;;;;;;;2.78;2.53;;;11.40;1.00;;;;;;5089717;28;20218;-81
2021/05/03 08:50:49;;;;;;;2.95;2.50;;;11.50;1.00;;;;;;5075792;28;20217;-80
2021/05/03 08:53:17;;;;;;;2.97;1.90;;;11.60;1.00;;;;;;5076900;28;20216;-82
2021/05/03 08:55:44;;;;;;;4.57;2.63;;;12.00;1.00;;;;;;5064328;28;20227;-80
2021/05/03 08:58:11;;;;;;;2.00;1.83;;;12.10;1.00;;;;;;5081644;28;20267;-81
2021/05/03 09:00:38;;;;;;;2.88;2.67;;;11.80;1.00;;;;;;5080157;28;20217;-82
2021/05/03 09:03:09;;;;;;;5.63;2.90;;;11.40;1.00;;;;;;5088358;28;20318;-81
2021/05/03 09:05:35;;;;;;;5.40;2.90;;;11.10;1.00;;;;;;5082994;28;20265;-82
2021/05/03 09:08:04;;;;;;;2.65;2.03;;;10.80;1.00;;;;;;5094150;28;20244;-78
2021/05/03 09:10:31;;;;;;;2.70;2.05;;;10.80;1.00;;;;;;5083657;28;20224;-80
2021/05/03 09:13:08;;;;;;;2.97;2.45;;;10.70;1.00;;;;;;5082854;28;20248;-80
2021/05/03 09:15:34;;;;;;;2.15;1.95;;;10.40;1.00;;;;;;5062615;28;20235;-78
2021/05/03 09:18:04;;;;;;;4.43;2.20;;;10.30;1.00;;;;;;5079096;28;20230;-87
2021/05/03 09:20:31;;;;;;;2.92;2.33;;;10.30;1.00;;;;;;5090158;28;20380;-78
2021/05/03 09:23:03;;;;;;;1.73;1.63;;;10.70;1.00;;;;;;5078598;28;21177;-79
2021/05/03 09:25:34;;;;;;;2.20;1.95;;;11.10;1.00;;;;;;5081812;28;20269;-77
2021/05/03 09:28:12;;;;;;;2.17;1.63;;;11.50;1.00;;;;;;5073726;28;20261;-79
2021/05/03 09:30:44;;;;;;;2.55;2.35;;;11.30;1.00;;;;;;5074732;28;20476;-77
2021/05/03 09:33:17;;;;;;;2.10;2.00;;;10.90;1.00;;;;;;5079748;28;20263;-78
2021/05/03 09:35:45;;;;;;;3.97;1.95;;;10.70;1.00;;;;;;5080398;28;20248;-79
2021/05/03 09:38:31;;;;;;;2.80;1.95;;;10.70;1.00;;;;;;5084050;28;20228;-78
2021/05/03 09:41:14;;;;;;;3.93;1.60;;;11.80;1.00;;;;;;5085093;28;20228;-79
2021/05/03 09:43:43;;;;;;;2.93;1.73;;;14.00;1.00;;;;;;5091559;28;20459;-82
2021/05/03 09:46:30;;;;;;;6.23;2.70;;;15.20;1.00;;;;;;5089304;28;20450;-82
2021/05/03 09:49:01;;;;;;;3.57;1.90;;;15.60;1.00;;;;;;5070124;28;20489;-82
2021/05/03 09:51:46;;;;;;;2.67;2.13;;;14.70;1.00;;;;;;5086729;28;20428;-82
2021/05/03 09:54:14;;;;;;;2.03;1.77;;;13.90;1.00;;;;;;5084436;28;20492;-82
2021/05/03 09:57:00;;;;;;;2.20;1.40;;;13.80;1.00;;;;;;5082600;28;20441;-81
2021/05/03 09:59:35;;;;;;;5.60;1.90;;;15.30;1.00;;;;;;5078380;28;21113;-85
2021/05/03 10:02:09;;;;;;;3.53;1.53;;;15.70;1.00;;;;;;5083049;28;20450;-81
2021/05/03 10:04:37;;;;;;;6.10;2.03;;;15.20;1.00;;;;;;5085652;28;20462;-82
2021/05/03 10:07:04;;;;;;;1.30;1.20;;;14.90;1.00;;;;;;5088157;28;20407;-80
2021/05/03 10:09:32;;;;;;;3.53;1.70;;;15.00;1.00;;;;;;5059177;28;20419;-79
2021/05/03 10:11:59;;;;;;;2.20;1.57;;;15.00;1.00;;;;;;5082210;28;20414;-79
2021/05/03 10:14:25;;;;;;;2.20;2.00;;;15.40;1.00;;;;;;5081825;28;20437;-78
2021/05/03 10:16:53;;;;;;;4.60;1.73;;;15.20;1.00;;;;;;5077055;28;20539;-80
2021/05/03 10:19:20;;;;;;;3.10;2.07;;;14.50;1.00;;;;;;5059638;28;20478;-79
2021/05/03 10:21:48;;;;;;;1.67;1.57;;;13.90;1.00;;;;;;5077840;28;20471;-83
2021/05/03 10:24:16;;;;;;;3.40;1.70;;;14.70;1.00;;;;;;5069911;28;20453;-81
2021/05/03 10:26:44;;;;;;;3.07;1.70;;;16.80;1.00;;;;;;5063323;28;20451;-79
2021/05/03 10:29:25;;;;;;;2.63;1.60;;;17.40;1.00;;;;;;5069130;28;20449;-79
2021/05/03 10:32:03;;;;;;;2.50;1.33;;;16.30;1.00;;;;;;5080189;28;20573;-83
2021/05/03 10:34:40;;;;;;;4.43;2.03;;;15.10;1.00;;;;;;5085247;28;20474;-79
2021/05/03 10:37:49;;;;;;;1.70;1.60;;;14.20;1.00;;;;;;5081025;28;20439;-80
2021/05/03 10:40:43;;;;;;;2.20;2.00;;;13.40;1.00;;;;;;5077452;28;20459;-79
2021/05/03 10:43:22;;;;;;;4.37;2.50;;;12.90;1.00;;;;;;5076292;28;20458;-80
2021/05/03 10:46:05;;;;;;;5.13;1.83;;;12.50;1.00;;;;;;5055701;28;20505;-78
2021/05/03 10:48:36;;;;;;;2.47;1.73;;;12.10;1.00;;;;;;5068726;28;21134;-79
2021/05/03 10:51:06;;;;;;;1.60;1.50;;;11.80;1.00;;;;;;5066101;28;21317;-78
2021/05/03 10:53:36;;;;;;;3.73;1.87;;;11.90;1.00;;;;;;5071921;28;20257;-77
2021/05/03 10:56:05;;;;;;;2.40;1.40;;;12.60;1.00;;;;;;5069809;28;20429;-78
2021/05/03 10:59:08;;;;;;;2.50;1.87;;;14.10;1.00;;;;;;5060210;28;20431;-77
2021/05/03 11:02:05;;;;;;;1.87;1.67;;;14.90;1.00;;;;;;5079618;28;20434;-82
2021/05/03 11:04:33;;;;;;;5.00;1.80;;;14.90;1.00;;;;;;5067573;28;20983;-82
2021/05/03 11:07:11;;;;;;;1.70;1.60;;;14.80;1.00;;;;;;5069555;28;20461;-82
2021/05/03 11:09:41;;;;;;;1.83;1.33;;;16.50;1.00;;;;;;5077237;28;20412;-79
2021/05/03 11:12:28;;;;;;;1.97;1.47;;;18.50;1.00;;;;;;5063419;28;20534;-80
2021/05/03 11:15:19;;;;;;;1.73;1.50;;;18.60;1.00;;;;;;5076425;28;20441;-84
2021/05/03 11:18:26;;;;;;;6.23;1.87;;;18.10;1.00;;;;;;5057623;28;20461;-81
2021/05/03 11:21:05;;;;;;;2.80;1.27;;;18.00;1.00;;;;;;5072461;28;20463;-81
2021/05/03 11:23:34;;;;;;;1.83;1.73;;;18.70;1.00;;;;;;5081493;28;20444;-80
2021/05/03 11:26:02;;;;;;;2.17;1.43;;;18.40;1.00;;;;;;5080316;28;20476;-82
2021/05/03 11:28:32;;;;;;;2.20;1.80;;;18.00;1.00;;;;;;5080402;28;20455;-79
2021/05/03 11:31:10;;;;;;;1.77;1.13;;;17.00;1.00;;;;;;5076529;28;20456;-81
2021/05/03 11:33:40;;;;;;;2.13;1.40;;;16.80;1.00;;;;;;5077834;28;20510;-79
2021/05/03 11:36:09;;;;;;;1.63;1.47;;;16.30;1.00;;;;;;5077028;28;20462;-81
2021/05/03 11:38:48;;;;;;;1.90;1.63;;;15.60;1.00;;;;;;5082039;28;20427;-81
2021/05/03 11:41:28;;;;;;;2.97;1.70;;;15.20;1.00;;;;;;5061932;28;20434;-79
2021/05/03 11:43:59;;;;;;;2.60;1.37;;;14.60;1.00;;;;;;5068708;28;20492;-81
2021/05/03 11:46:35;;;;;;;2.50;1.80;;;14.60;1.00;;;;;;5074615;28;22599;-82
2021/05/03 11:49:14;;;;;;;3.50;1.90;;;14.60;1.00;;;;;;5069732;28;20487;-80
2021/05/03 11:51:43;;;;;;;1.73;1.53;;;14.40;1.00;;;;;;5077107;28;20441;-85
2021/05/03 11:54:27;;;;;;;3.93;2.13;;;14.20;1.00;;;;;;5094448;28;20415;-89
2021/05/03 11:57:01;;;;;;;4.73;2.77;;;14.00;1.00;;;;;;5073956;28;20447;-87
2021/05/03 11:59:30;;;;;;;2.37;1.67;;;13.70;1.00;;;;;;5072514;28;20434;-88
2021/05/03 12:02:12;;;;;;;3.57;1.67;;;13.50;1.00;;;;;;5100886;28;20434;-88
2021/05/03 12:04:40;;;;;;;2.67;1.60;;;13.40;1.00;;;;;;5075823;28;20462;-87
2021/05/03 12:07:20;;;;;;;1.83;1.53;;;13.60;1.00;;;;;;5077888;28;20495;-85
2021/05/03 12:09:48;;;;;;;3.40;2.17;;;14.10;1.00;;;;;;5084272;28;20448;-85
2021/05/03 12:12:15;;;;;;;1.93;1.70;;;14.30;1.00;;;;;;5083192;28;20451;-87
2021/05/03 12:14:44;;;;;;;7.40;1.93;;;14.70;1.00;;;;;;5087450;28;20520;-80
2021/05/03 12:17:23;;;;;;;5.33;1.70;;;14.50;1.00;;;;;;5069027;28;20443;-79
2021/05/03 12:19:51;;;;;;;1.80;1.40;;;14.00;1.00;;;;;;5080561;28;20462;-80
2021/05/03 12:22:19;;;;;;;2.83;2.13;;;13.70;1.00;;;;;;5081825;28;20786;-80
2021/05/03 12:24:47;;;;;;;2.07;1.70;;;13.40;1.00;;;;;;5059512;28;20491;-79
2021/05/03 12:27:14;;;;;;;1.90;1.63;;;13.40;1.00;;;;;;5078566;28;20424;-79
2021/05/03 12:29:43;;;;;;;1.97;1.67;;;13.50;1.00;;;;;;5076766;28;20422;-77
2021/05/03 12:32:12;;;;;;;4.27;2.50;;;13.60;1.00;;;;;;5074771;28;21309;-79
2021/05/03 12:34:46;;;;;;;4.83;2.20;;;13.70;1.00;;;;;;5072658;28;20443;-78
2021/05/03 12:37:15;;;;;;;3.97;2.10;;;13.80;1.00;;;;;;5078396;28;20448;-79
2021/05/03 12:40:13;;;;;;;1.80;1.40;;;13.50;1.00;;;;;;5082736;28;20463;-79
2021/05/03 12:42:45;;;;;;;4.70;3.27;;;13.40;1.00;;;;;;5024526;28;20844;-79
2021/05/03 12:45:26;;;;;;;3.50;1.77;;;13.10;1.00;;;;;;5074432;28;20453;-78
2021/05/03 12:48:05;;;;;;;6.80;2.13;;;13.20;1.00;;;;;;5066860;28;20444;-77
2021/05/03 12:50:46;;;;;;;4.03;1.90;;;13.90;1.00;;;;;;5075471;28;20479;-77
2021/05/03 12:53:19;;;;;;;1.90;1.60;;;14.80;1.00;;;;;;5072658;28;20459;-76
2021/05/03 12:56:01;;;;;;;2.27;1.60;;;14.80;1.00;;;;;;5079517;28;22920;-78
2021/05/03 12:58:35;;;;;;;2.57;1.63;;;14.60;1.00;;;;;;5078283;28;21612;-78
2021/05/03 13:01:14;;;;;;;6.73;2.20;;;14.10;1.00;;;;;;5070755;28;20526;-77
2021/05/03 13:03:51;;;;;;;5.80;2.33;;;13.80;1.00;;;;;;5079004;28;20439;-76
2021/05/03 13:06:29;;;;;;;3.27;2.97;;;13.40;1.00;;;;;;5069353;28;21387;-76
2021/05/03 13:29:01;;;;;;;5.85;3.10;;;11.70;1.00;;;;;;5080370;28;20285;-78
2021/05/03 13:31:28;;;;;;;4.73;2.60;;;11.70;1.00;;;;;;5081857;28;20220;-78
2021/05/03 13:33:54;;;;;;;6.28;5.43;;;11.70;1.00;;;;;;5086375;28;20505;-81
2021/05/03 13:36:21;;;;;;;4.28;2.78;;;11.70;1.00;;;;;;5068105;28;20228;-79
2021/05/03 13:38:49;;;;;;;6.72;2.40;;;11.80;1.00;;;;;;5082602;28;20235;-81
2021/05/03 13:41:16;;;;;;;2.47;2.20;;;11.70;1.00;;;;;;5065009;28;20980;-81
2021/05/03 13:43:42;;;;;;;3.58;2.35;;;11.60;1.00;;;;;;5084461;28;20288;-79